Aviation Digital Data Service (ADDS)

Output produced by METARs form (0740 UTC 26 October 2014)
found at http://aviationweather.gov/adds/metars/
 
METAR text: KBFM 260653Z AUTO 00000KT 7SM CLR 14/14 A3006 RMK AO2 SLP178 T01440139
Conditions at: KBFM (MOBILE/BROOKLEY , AL, US) observed 0653 UTC 26 October 2014
Temperature: 14.4°C (58°F)
Dewpoint: 13.9°C (57°F) [RH = 97%]
Pressure (altimeter): 30.06 inches Hg (1018.0 mb)
[Sea-level pressure: 1017.8 mb]
Winds: calm
Visibility: 7 miles (11 km)
Ceiling: at least 12,000 feet AGL
Clouds: sky clear below 12,000 feet AGL
Weather: automated observation with no human augmentation;
there may or may not be significant weather present at this time